Macondo — 3EYB9 — position and weather

sailwx.info

Track history (hours):
 
Tides and Currents Weather Stations Pressure Air Temp Water Temp Dewpoint Dewpoint Depression Visibility Wind Speed Wind Dir Waves Ship Positions

Macondo

Last reported at 2016-Jun-27 21:29 UTC. Time now 2016-Jun-27 22:15 UTC.
Position N 10°19' W 061°31'.

Length 120 m; draft 4.8 m.

Type: Cargo ship. MMSI: 371293000.

Date/timePositionNaut miles runAvg speedWind from/ knotsBaromVisibWave heightAir tempDewpointWater temp
2016-Jun-27 21:29N 10°19' W 061°31'0 0.0
2016-Jun-27 18:28N 10°19' W 061°31'0 0.0
2016-Jun-27 17:28N 10°19' W 061°31'0 0.0
2016-Jun-27 16:30N 10°19' W 061°31'0 0.1
2016-Jun-27 15:21N 10°19' W 061°31'8 7.5
2016-Jun-27 14:16N 10°27' W 061°34'710.1
2016-Jun-27 13:33N 10°34' W 061°33'3 3.3
2016-Jun-27 12:31N 10°37' W 061°32'0 0.0
2016-Jun-27 11:33N 10°37' W 061°32'0 0.0
2016-Jun-27 10:33N 10°37' W 061°32'0 0.0
2016-Jun-27 09:33N 10°37' W 061°32'0 0.0
2016-Jun-27 08:32N 10°37' W 061°32'0 0.0
2016-Jun-27 07:32N 10°37' W 061°32'0 0.0
2016-Jun-27 06:31N 10°37' W 061°32'0 0.0
2016-Jun-27 05:31N 10°37' W 061°32'0 0.0
2016-Jun-27 04:33N 10°37' W 061°32'0 0.0
2016-Jun-27 03:33N 10°37' W 061°32'0 0.1
2016-Jun-27 02:33N 10°37' W 061°32'0 0.0
2016-Jun-27 00:32N 10°37' W 061°32'0 0.0
2016-Jun-26 23:07N 10°37' W 061°32'0 0.0
2016-Jun-26 22:31N 10°37' W 061°32'0 0.0
2016-Jun-26 20:33N 10°37' W 061°32'0 0.0
2016-Jun-26 19:33N 10°37' W 061°32'0 0.0
2016-Jun-26 18:32N 10°37' W 061°32'0 0.0
2016-Jun-26 17:32N 10°37' W 061°32'0 0.0
2016-Jun-26 16:31N 10°37' W 061°32'0 0.0
2016-Jun-26 15:31N 10°37' W 061°32'0 0.0
2016-Jun-26 14:33N 10°37' W 061°32'0 0.0
2016-Jun-26 13:33N 10°37' W 061°32'0 0.0
2016-Jun-26 12:32N 10°37' W 061°32'0 0.1
2016-Jun-26 11:32N 10°37' W 061°32'0 0.0
2016-Jun-26 10:32N 10°37' W 061°32'0 0.0
2016-Jun-26 09:31N 10°37' W 061°32'0 0.0
2016-Jun-26 08:31N 10°37' W 061°32'0 0.0
2016-Jun-26 07:33N 10°37' W 061°32'0 0.0
2016-Jun-26 06:33N 10°37' W 061°32'0 0.1
2016-Jun-26 05:32N 10°37' W 061°32'0 0.0
2016-Jun-26 04:32N 10°37' W 061°32'0 0.0
2016-Jun-26 02:31N 10°37' W 061°32'0 0.1
2016-Jun-26 01:31N 10°37' W 061°32'0 0.0
2016-Jun-26 00:33N 10°37' W 061°32'0 0.0
2016-Jun-25 23:33N 10°37' W 061°32'0 0.0
2016-Jun-25 22:32N 10°37' W 061°32'0 0.1
2016-Jun-25 21:32N 10°37' W 061°32'0 0.0
2016-Jun-25 20:32N 10°37' W 061°32'0 0.0
2016-Jun-25 19:31N 10°37' W 061°32'0 0.0
2016-Jun-25 18:31N 10°37' W 061°32'0 0.0
2016-Jun-25 17:33N 10°37' W 061°32'0 0.0
2016-Jun-25 16:33N 10°37' W 061°32'0 0.0
2016-Jun-25 15:32N 10°37' W 061°32'0 0.0
2016-Jun-25 14:32N 10°37' W 061°32'0 0.1
2016-Jun-25 13:31N 10°37' W 061°32'0 0.0
2016-Jun-25 12:31N 10°37' W 061°32'0 0.0
2016-Jun-25 11:34N 10°37' W 061°32'0 0.0
2016-Jun-25 10:34N 10°37' W 061°32'0 0.0
2016-Jun-25 09:34N 10°37' W 061°32'0 0.0
2016-Jun-25 08:34N 10°37' W 061°32'0 0.0
2016-Jun-25 07:34N 10°37' W 061°32'0 0.0
2016-Jun-25 06:34N 10°37' W 061°32'0 0.1
2016-Jun-25 05:34N 10°37' W 061°32'0 0.1
2016-Jun-25 04:34N 10°37' W 061°32'0 0.0
2016-Jun-25 03:34N 10°37' W 061°32'0 0.0
2016-Jun-25 02:34N 10°37' W 061°32'0 0.0
2016-Jun-25 01:34N 10°37' W 061°32'0 0.0
2016-Jun-25 00:34N 10°37' W 061°32'0 0.0
2016-Jun-24 23:34N 10°37' W 061°32'0 0.0
2016-Jun-24 22:33N 10°37' W 061°32'0 0.0
2016-Jun-24 21:34N 10°37' W 061°32'2 1.9
2016-Jun-24 20:34N 10°36' W 061°34'9 8.7
2016-Jun-24 19:34N 10°28' W 061°36'9 9.3
2016-Jun-24 18:34N 10°19' W 061°33'0 0.4
2016-Jun-24 17:28N 10°19' W 061°32'0 0.0
2016-Jun-24 16:30N 10°19' W 061°32'0 0.0
2016-Jun-24 15:18N 10°19' W 061°32'0 0.0
2016-Jun-24 14:25N 10°19' W 061°32'0 0.0
2016-Jun-24 11:33N 10°19' W 061°32'0 0.0
2016-Jun-24 10:16N 10°19' W 061°32'0 0.0
2016-Jun-24 09:33N 10°19' W 061°32'0 0.0
2016-Jun-24 08:33N 10°19' W 061°32'0 0.0
2016-Jun-24 07:33N 10°19' W 061°32'0 0.0
2016-Jun-24 04:33N 10°19' W 061°32'0 0.0
2016-Jun-24 03:29N 10°19' W 061°32'0 0.0
2016-Jun-24 02:33N 10°19' W 061°32'0 0.0
2016-Jun-24 01:33N 10°19' W 061°32'0 0.0
2016-Jun-24 00:34N 10°19' W 061°32'1 1.2
2016-Jun-23 23:34N 10°19' W 061°33'9 9.4
2016-Jun-23 22:33N 10°28' W 061°36'10 9.9
2016-Jun-23 21:34N 10°38' W 061°38'0 0.1
2016-Jun-23 20:34N 10°38' W 061°38'0 0.0
2016-Jun-23 19:33N 10°38' W 061°38'0 0.0
2016-Jun-23 18:33N 10°38' W 061°38'0 0.0
2016-Jun-23 17:33N 10°38' W 061°38'0 0.0
2016-Jun-23 16:33N 10°38' W 061°38'0 0.1
2016-Jun-23 15:34N 10°38' W 061°38'0 0.1
2016-Jun-23 14:33N 10°38' W 061°38'0 0.0
2016-Jun-23 13:33N 10°38' W 061°38'0 0.1
2016-Jun-23 12:33N 10°38' W 061°38'0 0.0
2016-Jun-23 11:34N 10°38' W 061°38'0 0.0
2016-Jun-23 10:34N 10°38' W 061°38'0 0.0
2016-Jun-23 09:33N 10°38' W 061°38'0 0.0
2016-Jun-23 08:33N 10°38' W 061°38'0 0.0
2016-Jun-23 07:33N 10°38' W 061°38'0 0.0
2016-Jun-23 05:33N 10°38' W 061°38'0 0.1
2016-Jun-23 04:33N 10°38' W 061°38'0 0.0
2016-Jun-23 03:33N 10°38' W 061°38'0 0.0
2016-Jun-23 02:33N 10°38' W 061°38'0 0.1
2016-Jun-23 01:33N 10°38' W 061°38'1 0.9
2016-Jun-23 00:33N 10°39' W 061°38'1 1.2
2016-Jun-22 23:33N 10°39' W 061°37'0 0.2
2016-Jun-22 22:33N 10°39' W 061°37'0 0.0
2016-Jun-22 21:33N 10°39' W 061°37'0 0.0
2016-Jun-22 20:33N 10°39' W 061°37'0 0.0
2016-Jun-22 19:34N 10°39' W 061°37'0 0.0
2016-Jun-22 18:33N 10°39' W 061°37'0 0.1
2016-Jun-22 17:33N 10°39' W 061°37'0 0.2
2016-Jun-22 16:33N 10°39' W 061°37'0 0.0
2016-Jun-22 15:34N 10°39' W 061°37'0 0.1
2016-Jun-22 14:34N 10°39' W 061°37'0 0.2
2016-Jun-22 13:33N 10°39' W 061°37'0 0.0
2016-Jun-22 12:33N 10°39' W 061°37'0 0.1
2016-Jun-22 11:33N 10°39' W 061°37'0 0.2
2016-Jun-22 10:33N 10°39' W 061°37'0 0.0
2016-Jun-22 09:33N 10°39' W 061°37'0 0.0
2016-Jun-22 08:33N 10°39' W 061°37'0 0.0
2016-Jun-22 07:33N 10°39' W 061°37'0 0.0
2016-Jun-22 06:33N 10°39' W 061°37'0 0.1
2016-Jun-22 05:33N 10°38' W 061°37'0 0.1
2016-Jun-22 04:33N 10°39' W 061°37'0 0.0
2016-Jun-22 03:33N 10°39' W 061°37'0 0.0
2016-Jun-22 02:33N 10°39' W 061°37'0 0.0
2016-Jun-22 01:33N 10°39' W 061°37'0 0.0
2016-Jun-22 00:33N 10°39' W 061°37'0 0.0
2016-Jun-21 23:33N 10°39' W 061°37'0 0.1
2016-Jun-21 22:33N 10°39' W 061°37'0 0.2
2016-Jun-21 21:33N 10°39' W 061°37'0 0.1
2016-Jun-21 20:33N 10°39' W 061°37'0 0.1
2016-Jun-21 19:33N 10°39' W 061°37'0 0.0
2016-Jun-21 18:33N 10°39' W 061°37'0 0.0
2016-Jun-21 17:33N 10°39' W 061°37'0 0.0
2016-Jun-21 16:33N 10°39' W 061°37'0 0.2
2016-Jun-21 15:33N 10°39' W 061°37'0 0.0
2016-Jun-21 14:33N 10°39' W 061°37'0 0.0
2016-Jun-21 13:33N 10°39' W 061°37'0 0.0
2016-Jun-21 12:33N 10°39' W 061°37'0 0.0
2016-Jun-21 11:33N 10°39' W 061°37'0 0.0
2016-Jun-21 10:33N 10°39' W 061°37'0 0.2
2016-Jun-21 09:33N 10°38' W 061°37'0 0.0
2016-Jun-21 08:33N 10°39' W 061°37'0 0.0
2016-Jun-21 07:33N 10°38' W 061°37'0 0.0
2016-Jun-21 05:33N 10°39' W 061°37'0 0.0
2016-Jun-21 04:33N 10°39' W 061°37'0 0.1
2016-Jun-21 03:33N 10°38' W 061°37'0 0.1
2016-Jun-21 02:33N 10°39' W 061°37'0 0.0
2016-Jun-21 01:33N 10°39' W 061°37'0 0.0
2016-Jun-21 00:33N 10°39' W 061°37'0 0.0
2016-Jun-20 23:33N 10°39' W 061°37'0 0.1
2016-Jun-20 22:33N 10°38' W 061°37'0 0.1
2016-Jun-20 21:33N 10°38' W 061°37'0 0.0
2016-Jun-20 20:33N 10°38' W 061°37'0 0.0
2016-Jun-20 19:33N 10°39' W 061°37'0 0.0
2016-Jun-20 18:33N 10°39' W 061°37'0 0.0
2016-Jun-20 17:33N 10°39' W 061°37'0 0.1
2016-Jun-20 16:33N 10°39' W 061°37'0 0.1
2016-Jun-20 15:33N 10°39' W 061°37'0 0.2
2016-Jun-20 14:34N 10°39' W 061°37'0 0.0
2016-Jun-20 13:33N 10°39' W 061°37'0 0.0
2016-Jun-20 12:33N 10°39' W 061°37'0 0.0
2016-Jun-20 11:33N 10°39' W 061°37'0 0.0
2016-Jun-20 10:33N 10°39' W 061°37'0 0.1
2016-Jun-20 09:33N 10°39' W 061°37'0 0.1
2016-Jun-20 08:33N 10°39' W 061°37'0 0.0
2016-Jun-20 07:33N 10°39' W 061°37'0 0.0
2016-Jun-20 06:33N 10°39' W 061°37'0 0.0
2016-Jun-20 05:33N 10°39' W 061°37'0 0.1
2016-Jun-20 04:33N 10°39' W 061°37'0 0.2
2016-Jun-20 03:33N 10°39' W 061°37'0 0.0
2016-Jun-20 02:33N 10°39' W 061°37'0 0.0
2016-Jun-20 01:33N 10°39' W 061°37'0 0.0
2016-Jun-20 00:33N 10°39' W 061°37'0 0.2
2016-Jun-19 23:33N 10°39' W 061°37'0 0.3
2016-Jun-19 22:33N 10°39' W 061°37'0 0.0
2016-Jun-19 21:33N 10°39' W 061°37'0 0.3
2016-Jun-19 20:33N 10°39' W 061°37'0 0.1
2016-Jun-19 19:33N 10°39' W 061°37'0 0.0
2016-Jun-19 18:33N 10°39' W 061°37'0 0.0
2016-Jun-19 17:33N 10°39' W 061°37'0 0.0
2016-Jun-19 16:33N 10°39' W 061°37'0 0.0
2016-Jun-19 15:33N 10°39' W 061°37'0 0.1
2016-Jun-19 14:33N 10°39' W 061°37'0 0.2
2016-Jun-19 13:33N 10°39' W 061°37'0 0.0
2016-Jun-19 12:33N 10°39' W 061°37'0 0.0
2016-Jun-19 11:33N 10°39' W 061°37'0 0.1
2016-Jun-19 10:33N 10°39' W 061°37'0 0.0
2016-Jun-19 09:33N 10°39' W 061°37'0 0.2
2016-Jun-19 08:33N 10°39' W 061°37'0 0.0
2016-Jun-19 07:33N 10°39' W 061°37'0 0.0
2016-Jun-19 06:33N 10°39' W 061°37'0 0.0
2016-Jun-19 05:33N 10°39' W 061°37'0 0.0
2016-Jun-19 04:33N 10°39' W 061°37'0 0.0
2016-Jun-19 03:33N 10°39' W 061°37'0 0.2
2016-Jun-19 02:33N 10°39' W 061°37'0 0.0
2016-Jun-19 01:34N 10°39' W 061°37'0 0.0
2016-Jun-19 00:33N 10°39' W 061°37'0 0.0
2016-Jun-18 23:33N 10°39' W 061°37'0 0.0
2016-Jun-18 22:33N 10°39' W 061°37'0 0.0
2016-Jun-18 21:33N 10°39' W 061°37'0 0.0
2016-Jun-18 20:33N 10°39' W 061°37'0 0.2
2016-Jun-18 19:33N 10°39' W 061°37'0 0.1
2016-Jun-18 18:33N 10°39' W 061°37'0 0.0
2016-Jun-18 17:34N 10°39' W 061°37'0 0.0
2016-Jun-18 16:33N 10°39' W 061°37'0 0.0
2016-Jun-18 15:33N 10°39' W 061°37'0 0.0
2016-Jun-18 14:33N 10°39' W 061°37'0 0.0
2016-Jun-18 13:33N 10°39' W 061°37'0 0.2
2016-Jun-18 12:33N 10°39' W 061°37'0 0.1
2016-Jun-18 11:33N 10°39' W 061°37'0 0.3
2016-Jun-18 10:33N 10°39' W 061°37'0 0.2
2016-Jun-18 09:33N 10°38' W 061°37'0 0.1
2016-Jun-18 08:33N 10°38' W 061°37'0 0.0
2016-Jun-18 07:33N 10°38' W 061°37'0 0.0
2016-Jun-18 06:33N 10°38' W 061°37'0 0.0
2016-Jun-18 05:33N 10°38' W 061°37'0 0.0
2016-Jun-18 04:33N 10°38' W 061°37'0 0.0
2016-Jun-18 03:33N 10°38' W 061°37'0 0.0
2016-Jun-18 02:33N 10°38' W 061°37'0 0.2
2016-Jun-18 01:33N 10°38' W 061°37'0 0.0
2016-Jun-18 00:33N 10°38' W 061°37'0 0.0
2016-Jun-17 23:33N 10°38' W 061°37'0 0.0
2016-Jun-17 22:33N 10°38' W 061°37'0 0.0
2016-Jun-17 21:33N 10°38' W 061°37'  
Track history (hours):
 
Tides and Currents Weather Stations Pressure Air Temp Water Temp Dewpoint Dewpoint Depression Visibility Wind Speed Wind Dir Waves Ship Positions

Macondo

Last reported at 2016-Jun-27 21:29 UTC. Time now 2016-Jun-27 22:15 UTC.
Position N 10°19' W 061°31'.

Length 120 m; draft 4.8 m.

Type: Cargo ship. MMSI: 371293000.

Date/timePositionNaut miles runAvg speedWind from/ knotsBaromVisibWave heightAir tempDewpointWater temp
2016-Jun-27 21:29N 10°19' W 061°31'0 0.0
2016-Jun-27 18:28N 10°19' W 061°31'0 0.0
2016-Jun-27 17:28N 10°19' W 061°31'0 0.0
2016-Jun-27 16:30N 10°19' W 061°31'0 0.1
2016-Jun-27 15:21N 10°19' W 061°31'8 7.5
2016-Jun-27 14:16N 10°27' W 061°34'710.1
2016-Jun-27 13:33N 10°34' W 061°33'3 3.3
2016-Jun-27 12:31N 10°37' W 061°32'0 0.0
2016-Jun-27 11:33N 10°37' W 061°32'0 0.0
2016-Jun-27 10:33N 10°37' W 061°32'0 0.0
2016-Jun-27 09:33N 10°37' W 061°32'0 0.0
2016-Jun-27 08:32N 10°37' W 061°32'0 0.0
2016-Jun-27 07:32N 10°37' W 061°32'0 0.0
2016-Jun-27 06:31N 10°37' W 061°32'0 0.0
2016-Jun-27 05:31N 10°37' W 061°32'0 0.0
2016-Jun-27 04:33N 10°37' W 061°32'0 0.0
2016-Jun-27 03:33N 10°37' W 061°32'0 0.1
2016-Jun-27 02:33N 10°37' W 061°32'0 0.0
2016-Jun-27 00:32N 10°37' W 061°32'0 0.0
2016-Jun-26 23:07N 10°37' W 061°32'0 0.0
2016-Jun-26 22:31N 10°37' W 061°32'0 0.0
2016-Jun-26 20:33N 10°37' W 061°32'0 0.0
2016-Jun-26 19:33N 10°37' W 061°32'0 0.0
2016-Jun-26 18:32N 10°37' W 061°32'0 0.0
2016-Jun-26 17:32N 10°37' W 061°32'0 0.0
2016-Jun-26 16:31N 10°37' W 061°32'0 0.0
2016-Jun-26 15:31N 10°37' W 061°32'0 0.0
2016-Jun-26 14:33N 10°37' W 061°32'0 0.0
2016-Jun-26 13:33N 10°37' W 061°32'0 0.0
2016-Jun-26 12:32N 10°37' W 061°32'0 0.1
2016-Jun-26 11:32N 10°37' W 061°32'0 0.0
2016-Jun-26 10:32N 10°37' W 061°32'0 0.0
2016-Jun-26 09:31N 10°37' W 061°32'0 0.0
2016-Jun-26 08:31N 10°37' W 061°32'0 0.0
2016-Jun-26 07:33N 10°37' W 061°32'0 0.0
2016-Jun-26 06:33N 10°37' W 061°32'0 0.1
2016-Jun-26 05:32N 10°37' W 061°32'0 0.0
2016-Jun-26 04:32N 10°37' W 061°32'0 0.0
2016-Jun-26 02:31N 10°37' W 061°32'0 0.1
2016-Jun-26 01:31N 10°37' W 061°32'0 0.0
2016-Jun-26 00:33N 10°37' W 061°32'0 0.0
2016-Jun-25 23:33N 10°37' W 061°32'0 0.0
2016-Jun-25 22:32N 10°37' W 061°32'0 0.1
2016-Jun-25 21:32N 10°37' W 061°32'0 0.0
2016-Jun-25 20:32N 10°37' W 061°32'0 0.0
2016-Jun-25 19:31N 10°37' W 061°32'0 0.0
2016-Jun-25 18:31N 10°37' W 061°32'0 0.0
2016-Jun-25 17:33N 10°37' W 061°32'0 0.0
2016-Jun-25 16:33N 10°37' W 061°32'0 0.0
2016-Jun-25 15:32N 10°37' W 061°32'0 0.0
2016-Jun-25 14:32N 10°37' W 061°32'0 0.1
2016-Jun-25 13:31N 10°37' W 061°32'0 0.0
2016-Jun-25 12:31N 10°37' W 061°32'0 0.0
2016-Jun-25 11:34N 10°37' W 061°32'0 0.0
2016-Jun-25 10:34N 10°37' W 061°32'0 0.0
2016-Jun-25 09:34N 10°37' W 061°32'0 0.0
2016-Jun-25 08:34N 10°37' W 061°32'0 0.0
2016-Jun-25 07:34N 10°37' W 061°32'0 0.0
2016-Jun-25 06:34N 10°37' W 061°32'0 0.1
2016-Jun-25 05:34N 10°37' W 061°32'0 0.1
2016-Jun-25 04:34N 10°37' W 061°32'0 0.0
2016-Jun-25 03:34N 10°37' W 061°32'0 0.0
2016-Jun-25 02:34N 10°37' W 061°32'0 0.0
2016-Jun-25 01:34N 10°37' W 061°32'0 0.0
2016-Jun-25 00:34N 10°37' W 061°32'0 0.0
2016-Jun-24 23:34N 10°37' W 061°32'0 0.0
2016-Jun-24 22:33N 10°37' W 061°32'0 0.0
2016-Jun-24 21:34N 10°37' W 061°32'2 1.9
2016-Jun-24 20:34N 10°36' W 061°34'9 8.7
2016-Jun-24 19:34N 10°28' W 061°36'9 9.3
2016-Jun-24 18:34N 10°19' W 061°33'0 0.4
2016-Jun-24 17:28N 10°19' W 061°32'0 0.0
2016-Jun-24 16:30N 10°19' W 061°32'0 0.0
2016-Jun-24 15:18N 10°19' W 061°32'0 0.0
2016-Jun-24 14:25N 10°19' W 061°32'0 0.0
2016-Jun-24 11:33N 10°19' W 061°32'0 0.0
2016-Jun-24 10:16N 10°19' W 061°32'0 0.0
2016-Jun-24 09:33N 10°19' W 061°32'0 0.0
2016-Jun-24 08:33N 10°19' W 061°32'0 0.0
2016-Jun-24 07:33N 10°19' W 061°32'0 0.0
2016-Jun-24 04:33N 10°19' W 061°32'0 0.0
2016-Jun-24 03:29N 10°19' W 061°32'0 0.0
2016-Jun-24 02:33N 10°19' W 061°32'0 0.0
2016-Jun-24 01:33N 10°19' W 061°32'0 0.0
2016-Jun-24 00:34N 10°19' W 061°32'1 1.2
2016-Jun-23 23:34N 10°19' W 061°33'9 9.4
2016-Jun-23 22:33N 10°28' W 061°36'10 9.9
2016-Jun-23 21:34N 10°38' W 061°38'0 0.1
2016-Jun-23 20:34N 10°38' W 061°38'0 0.0
2016-Jun-23 19:33N 10°38' W 061°38'0 0.0
2016-Jun-23 18:33N 10°38' W 061°38'0 0.0
2016-Jun-23 17:33N 10°38' W 061°38'0 0.0
2016-Jun-23 16:33N 10°38' W 061°38'0 0.1
2016-Jun-23 15:34N 10°38' W 061°38'0 0.1
2016-Jun-23 14:33N 10°38' W 061°38'0 0.0
2016-Jun-23 13:33N 10°38' W 061°38'0 0.1
2016-Jun-23 12:33N 10°38' W 061°38'0 0.0
2016-Jun-23 11:34N 10°38' W 061°38'0 0.0
2016-Jun-23 10:34N 10°38' W 061°38'0 0.0
2016-Jun-23 09:33N 10°38' W 061°38'0 0.0
2016-Jun-23 08:33N 10°38' W 061°38'0 0.0
2016-Jun-23 07:33N 10°38' W 061°38'0 0.0
2016-Jun-23 05:33N 10°38' W 061°38'0 0.1
2016-Jun-23 04:33N 10°38' W 061°38'0 0.0
2016-Jun-23 03:33N 10°38' W 061°38'0 0.0
2016-Jun-23 02:33N 10°38' W 061°38'0 0.1
2016-Jun-23 01:33N 10°38' W 061°38'1 0.9
2016-Jun-23 00:33N 10°39' W 061°38'1 1.2
2016-Jun-22 23:33N 10°39' W 061°37'0 0.2
2016-Jun-22 22:33N 10°39' W 061°37'0 0.0
2016-Jun-22 21:33N 10°39' W 061°37'0 0.0
2016-Jun-22 20:33N 10°39' W 061°37'0 0.0
2016-Jun-22 19:34N 10°39' W 061°37'0 0.0
2016-Jun-22 18:33N 10°39' W 061°37'0 0.1
2016-Jun-22 17:33N 10°39' W 061°37'0 0.2
2016-Jun-22 16:33N 10°39' W 061°37'0 0.0
2016-Jun-22 15:34N 10°39' W 061°37'0 0.1
2016-Jun-22 14:34N 10°39' W 061°37'0 0.2
2016-Jun-22 13:33N 10°39' W 061°37'0 0.0
2016-Jun-22 12:33N 10°39' W 061°37'0 0.1
2016-Jun-22 11:33N 10°39' W 061°37'0 0.2
2016-Jun-22 10:33N 10°39' W 061°37'0 0.0
2016-Jun-22 09:33N 10°39' W 061°37'0 0.0
2016-Jun-22 08:33N 10°39' W 061°37'0 0.0
2016-Jun-22 07:33N 10°39' W 061°37'0 0.0
2016-Jun-22 06:33N 10°39' W 061°37'0 0.1
2016-Jun-22 05:33N 10°38' W 061°37'0 0.1
2016-Jun-22 04:33N 10°39' W 061°37'0 0.0
2016-Jun-22 03:33N 10°39' W 061°37'0 0.0
2016-Jun-22 02:33N 10°39' W 061°37'0 0.0
2016-Jun-22 01:33N 10°39' W 061°37'0 0.0
2016-Jun-22 00:33N 10°39' W 061°37'0 0.0
2016-Jun-21 23:33N 10°39' W 061°37'0 0.1
2016-Jun-21 22:33N 10°39' W 061°37'0 0.2
2016-Jun-21 21:33N 10°39' W 061°37'0 0.1
2016-Jun-21 20:33N 10°39' W 061°37'0 0.1
2016-Jun-21 19:33N 10°39' W 061°37'0 0.0
2016-Jun-21 18:33N 10°39' W 061°37'0 0.0
2016-Jun-21 17:33N 10°39' W 061°37'0 0.0
2016-Jun-21 16:33N 10°39' W 061°37'0 0.2
2016-Jun-21 15:33N 10°39' W 061°37'0 0.0
2016-Jun-21 14:33N 10°39' W 061°37'0 0.0
2016-Jun-21 13:33N 10°39' W 061°37'0 0.0
2016-Jun-21 12:33N 10°39' W 061°37'0 0.0
2016-Jun-21 11:33N 10°39' W 061°37'0 0.0
2016-Jun-21 10:33N 10°39' W 061°37'0 0.2
2016-Jun-21 09:33N 10°38' W 061°37'0 0.0
2016-Jun-21 08:33N 10°39' W 061°37'0 0.0
2016-Jun-21 07:33N 10°38' W 061°37'0 0.0
2016-Jun-21 05:33N 10°39' W 061°37'0 0.0
2016-Jun-21 04:33N 10°39' W 061°37'0 0.1
2016-Jun-21 03:33N 10°38' W 061°37'0 0.1
2016-Jun-21 02:33N 10°39' W 061°37'0 0.0
2016-Jun-21 01:33N 10°39' W 061°37'0 0.0
2016-Jun-21 00:33N 10°39' W 061°37'0 0.0
2016-Jun-20 23:33N 10°39' W 061°37'0 0.1
2016-Jun-20 22:33N 10°38' W 061°37'0 0.1
2016-Jun-20 21:33N 10°38' W 061°37'0 0.0
2016-Jun-20 20:33N 10°38' W 061°37'0 0.0
2016-Jun-20 19:33N 10°39' W 061°37'0 0.0
2016-Jun-20 18:33N 10°39' W 061°37'0 0.0
2016-Jun-20 17:33N 10°39' W 061°37'0 0.1
2016-Jun-20 16:33N 10°39' W 061°37'0 0.1
2016-Jun-20 15:33N 10°39' W 061°37'0 0.2
2016-Jun-20 14:34N 10°39' W 061°37'0 0.0
2016-Jun-20 13:33N 10°39' W 061°37'0 0.0
2016-Jun-20 12:33N 10°39' W 061°37'0 0.0
2016-Jun-20 11:33N 10°39' W 061°37'0 0.0
2016-Jun-20 10:33N 10°39' W 061°37'0 0.1
2016-Jun-20 09:33N 10°39' W 061°37'0 0.1
2016-Jun-20 08:33N 10°39' W 061°37'0 0.0
2016-Jun-20 07:33N 10°39' W 061°37'0 0.0
2016-Jun-20 06:33N 10°39' W 061°37'0 0.0
2016-Jun-20 05:33N 10°39' W 061°37'0 0.1
2016-Jun-20 04:33N 10°39' W 061°37'0 0.2
2016-Jun-20 03:33N 10°39' W 061°37'0 0.0
2016-Jun-20 02:33N 10°39' W 061°37'0 0.0
2016-Jun-20 01:33N 10°39' W 061°37'0 0.0
2016-Jun-20 00:33N 10°39' W 061°37'0 0.2
2016-Jun-19 23:33N 10°39' W 061°37'0 0.3
2016-Jun-19 22:33N 10°39' W 061°37'0 0.0
2016-Jun-19 21:33N 10°39' W 061°37'0 0.3
2016-Jun-19 20:33N 10°39' W 061°37'0 0.1
2016-Jun-19 19:33N 10°39' W 061°37'0 0.0
2016-Jun-19 18:33N 10°39' W 061°37'0 0.0
2016-Jun-19 17:33N 10°39' W 061°37'0 0.0
2016-Jun-19 16:33N 10°39' W 061°37'0 0.0
2016-Jun-19 15:33N 10°39' W 061°37'0 0.1
2016-Jun-19 14:33N 10°39' W 061°37'0 0.2
2016-Jun-19 13:33N 10°39' W 061°37'0 0.0
2016-Jun-19 12:33N 10°39' W 061°37'0 0.0
2016-Jun-19 11:33N 10°39' W 061°37'0 0.1
2016-Jun-19 10:33N 10°39' W 061°37'0 0.0
2016-Jun-19 09:33N 10°39' W 061°37'0 0.2
2016-Jun-19 08:33N 10°39' W 061°37'0 0.0
2016-Jun-19 07:33N 10°39' W 061°37'0 0.0
2016-Jun-19 06:33N 10°39' W 061°37'0 0.0
2016-Jun-19 05:33N 10°39' W 061°37'0 0.0
2016-Jun-19 04:33N 10°39' W 061°37'0 0.0
2016-Jun-19 03:33N 10°39' W 061°37'0 0.2
2016-Jun-19 02:33N 10°39' W 061°37'0 0.0
2016-Jun-19 01:34N 10°39' W 061°37'0 0.0
2016-Jun-19 00:33N 10°39' W 061°37'0 0.0
2016-Jun-18 23:33N 10°39' W 061°37'0 0.0
2016-Jun-18 22:33N 10°39' W 061°37'0 0.0
2016-Jun-18 21:33N 10°39' W 061°37'0 0.0
2016-Jun-18 20:33N 10°39' W 061°37'0 0.2
2016-Jun-18 19:33N 10°39' W 061°37'0 0.1
2016-Jun-18 18:33N 10°39' W 061°37'0 0.0
2016-Jun-18 17:34N 10°39' W 061°37'0 0.0
2016-Jun-18 16:33N 10°39' W 061°37'0 0.0
2016-Jun-18 15:33N 10°39' W 061°37'0 0.0
2016-Jun-18 14:33N 10°39' W 061°37'0 0.0
2016-Jun-18 13:33N 10°39' W 061°37'0 0.2
2016-Jun-18 12:33N 10°39' W 061°37'0 0.1
2016-Jun-18 11:33N 10°39' W 061°37'0 0.3
2016-Jun-18 10:33N 10°39' W 061°37'0 0.2
2016-Jun-18 09:33N 10°38' W 061°37'0 0.1
2016-Jun-18 08:33N 10°38' W 061°37'0 0.0
2016-Jun-18 07:33N 10°38' W 061°37'0 0.0
2016-Jun-18 06:33N 10°38' W 061°37'0 0.0
2016-Jun-18 05:33N 10°38' W 061°37'0 0.0
2016-Jun-18 04:33N 10°38' W 061°37'0 0.0
2016-Jun-18 03:33N 10°38' W 061°37'0 0.0
2016-Jun-18 02:33N 10°38' W 061°37'0 0.2
2016-Jun-18 01:33N 10°38' W 061°37'0 0.0
2016-Jun-18 00:33N 10°38' W 061°37'0 0.0
2016-Jun-17 23:33N 10°38' W 061°37'0 0.0
2016-Jun-17 22:33N 10°38' W 061°37'0 0.0
2016-Jun-17 21:33N 10°38' W 061°37'  

Dump ship's entire track history